Time,TemperatureF,DewpointF,PressureIn,WindDirection,WindDirectionDegrees,WindSpeedMPH,WindSpeedGustMPH,Humidity,HourlyPrecipIn,Conditions,Clouds,dailyrainin,SoftwareType,DateUTC
2013-05-10 00:00:00,56.5,54.8,29.93,SE,140,7.5,7.5,94,0.00,,BKN120,0.23,VWS V14.01,2013-05-10 04:00:00,
2013-05-10 00:09:00,56.3,54.6,29.93,SSE,151,1.5,9.0,94,0.00,,OVC018,0.23,VWS V14.01,2013-05-10 04:09:00,
2013-05-10 00:14:00,56.3,54.6,29.93,SSE,150,4.5,9.0,94,0.00,,OVC018,0.23,VWS V14.01,2013-05-10 04:14:00,
2013-05-10 00:19:00,56.2,54.5,29.93,SSE,151,0.0,9.0,94,0.00,,OVC018,0.23,VWS V14.01,2013-05-10 04:19:00,
2013-05-10 00:24:00,56.2,54.5,29.93,SSE,151,0.0,9.0,94,0.00,,OVC018,0.23,VWS V14.01,2013-05-10 04:24:00,
2013-05-10 00:29:00,56.2,54.5,29.93,SSE,151,0.0,7.5,94,0.00,,OVC018,0.23,VWS V14.01,2013-05-10 04:29:00,
2013-05-10 00:34:00,56.2,54.5,29.93,SSE,151,3.0,7.5,94,0.00,,OVC018,0.23,VWS V14.01,2013-05-10 04:34:00,
2013-05-10 00:39:00,56.2,54.5,29.93,SSE,152,4.5,6.0,94,0.00,,OVC018,0.23,VWS V14.01,2013-05-10 04:39:00,
2013-05-10 00:44:00,56.2,54.5,29.93,SSE,151,0.0,4.5,94,0.00,,OVC018,0.23,VWS V14.01,2013-05-10 04:44:00,
2013-05-10 00:49:00,56.2,54.5,29.93,SSE,151,0.0,4.5,94,0.00,,OVC018,0.23,VWS V14.01,2013-05-10 04:49:00,
2013-05-10 00:54:00,56.2,54.5,29.93,SSE,151,0.0,4.5,94,0.00,,OVC018,0.23,VWS V14.01,2013-05-10 04:54:00,
2013-05-10 00:59:00,56.2,54.5,29.93,SSE,151,0.0,4.5,94,0.00,,OVC018,0.23,VWS V14.01,2013-05-10 04:59:00,
2013-05-10 01:04:00,56.0,54.3,29.93,SSE,151,0.0,3.0,94,0.00,,OVC018,0.00,VWS V14.01,2013-05-10 05:04:00,
2013-05-10 01:09:00,56.0,54.3,29.93,SSE,151,0.0,0.0,94,0.00,,OVC018,0.00,VWS V14.01,2013-05-10 05:09:00,
2013-05-10 01:14:00,56.0,54.3,29.93,SSE,151,0.0,0.0,94,0.00,,OVC018,0.00,VWS V14.01,2013-05-10 05:14:00,
2013-05-10 01:19:00,56.2,54.5,29.93,SSE,151,0.0,0.0,94,0.00,,OVC018,0.00,VWS V14.01,2013-05-10 05:19:00,
2013-05-10 01:24:00,56.2,54.5,29.93,SSE,151,0.0,0.0,94,0.00,,OVC018,0.00,VWS V14.01,2013-05-10 05:24:00,
2013-05-10 01:29:00,56.2,54.5,29.93,SSE,151,0.0,0.0,94,0.00,,OVC018,0.00,VWS V14.01,2013-05-10 05:29:00,
2013-05-10 01:34:00,56.0,54.3,29.92,SSE,151,0.0,0.0,94,0.00,,OVC018,0.00,VWS V14.01,2013-05-10 05:34:00,
2013-05-10 01:39:00,56.2,54.5,29.92,SSE,151,0.0,0.0,94,0.00,,OVC018,0.00,VWS V14.01,2013-05-10 05:39:00,
2013-05-10 01:44:00,56.2,54.5,29.92,SSE,151,0.0,0.0,94,0.00,,OVC018,0.00,VWS V14.01,2013-05-10 05:44:00,
2013-05-10 01:49:00,56.2,54.5,29.93,SSE,151,0.0,0.0,94,0.00,,OVC018,0.00,VWS V14.01,2013-05-10 05:49:00,
2013-05-10 01:54:00,56.2,54.5,29.93,SSE,151,0.0,1.5,94,0.00,,OVC018,0.00,VWS V14.01,2013-05-10 05:54:00,
2013-05-10 01:59:00,56.2,54.5,29.93,SSE,151,0.0,1.5,94,0.00,,OVC018,0.00,VWS V14.01,2013-05-10 05:59:00,
2013-05-10 02:04:00,56.2,54.5,29.93,SSE,151,0.0,1.5,94,0.00,,OVC025,0.00,VWS V14.01,2013-05-10 06:04:00,
2013-05-10 02:09:00,56.2,54.5,29.93,SSE,151,0.0,1.5,94,0.00,,OVC025,0.00,VWS V14.01,2013-05-10 06:09:00,
2013-05-10 02:14:00,56.2,54.5,29.93,SSE,151,0.0,1.5,94,0.00,,OVC025,0.00,VWS V14.01,2013-05-10 06:14:00,
2013-05-10 02:19:00,56.0,54.3,29.93,South,180,0.0,0.0,94,0.00,,OVC025,0.00,VWS V14.01,2013-05-10 06:19:00,
2013-05-10 02:24:00,56.0,54.3,29.93,SSE,151,0.0,0.0,94,0.00,,OVC025,0.00,VWS V14.01,2013-05-10 06:24:00,
2013-05-10 02:29:00,56.0,54.3,29.93,SSE,151,0.0,0.0,94,0.00,,OVC025,0.00,VWS V14.01,2013-05-10 06:29:00,
2013-05-10 02:34:00,56.0,54.3,29.93,SSE,151,0.0,0.0,94,0.00,,OVC025,0.00,VWS V14.01,2013-05-10 06:34:00,
2013-05-10 02:39:00,56.2,54.5,29.93,SSE,151,0.0,0.0,94,0.00,,OVC025,0.00,VWS V14.01,2013-05-10 06:39:00,
2013-05-10 02:44:00,56.2,54.5,29.93,SSE,151,0.0,0.0,94,0.00,,OVC025,0.00,VWS V14.01,2013-05-10 06:44:00,
2013-05-10 02:49:00,56.2,54.5,29.92,South,180,0.0,0.0,94,0.00,,OVC025,0.00,VWS V14.01,2013-05-10 06:49:00,
2013-05-10 02:54:00,56.0,54.3,29.92,SSE,151,0.0,1.5,94,0.00,,OVC025,0.00,VWS V14.01,2013-05-10 06:54:00,
2013-05-10 02:59:00,56.0,54.3,29.92,SSE,151,0.0,1.5,94,0.00,,OVC025,0.00,VWS V14.01,2013-05-10 06:59:00,
2013-05-10 03:04:00,56.2,54.5,29.92,South,180,0.0,1.5,94,0.00,,OVC009,0.00,VWS V14.01,2013-05-10 07:04:00,
2013-05-10 03:09:00,56.2,54.5,29.92,SSE,151,0.0,1.5,94,0.00,,OVC009,0.00,VWS V14.01,2013-05-10 07:09:00,
2013-05-10 03:14:00,56.2,54.5,29.92,SSE,151,0.0,1.5,94,0.00,,OVC009,0.00,VWS V14.01,2013-05-10 07:14:00,
2013-05-10 03:19:00,56.2,54.5,29.93,South,180,0.0,1.5,94,0.00,,OVC009,0.00,VWS V14.01,2013-05-10 07:19:00,
2013-05-10 03:24:00,56.3,54.6,29.93,SSE,151,3.0,3.0,94,0.00,,OVC009,0.00,VWS V14.01,2013-05-10 07:24:00,
2013-05-10 03:29:00,56.3,54.6,29.93,SSE,151,0.0,3.0,94,0.00,,OVC009,0.00,VWS V14.01,2013-05-10 07:29:00,
2013-05-10 03:34:00,56.3,54.6,29.93,South,180,1.5,3.0,94,0.00,,OVC009,0.00,VWS V14.01,2013-05-10 07:34:00,
2013-05-10 03:39:00,56.3,54.6,29.93,SSE,151,3.0,3.0,94,0.00,,OVC009,0.00,VWS V14.01,2013-05-10 07:39:00,
2013-05-10 03:44:00,56.3,54.6,29.93,SSE,151,0.0,3.0,94,0.00,,OVC009,0.00,VWS V14.01,2013-05-10 07:44:00,
2013-05-10 03:49:00,56.3,54.6,29.93,SSE,151,0.0,3.0,94,0.00,,OVC009,0.00,VWS V14.01,2013-05-10 07:49:00,
2013-05-10 03:54:00,56.3,54.6,29.93,SSE,151,3.0,3.0,94,0.00,,OVC009,0.00,VWS V14.01,2013-05-10 07:54:00,
2013-05-10 03:59:00,56.3,54.6,29.93,SSE,151,0.0,3.0,94,0.00,,OVC009,0.00,VWS V14.01,2013-05-10 07:59:00,
2013-05-10 04:04:00,56.3,54.6,29.93,SSE,151,0.0,3.0,94,0.00,,OVC005,0.00,VWS V14.01,2013-05-10 08:04:00,
2013-05-10 04:09:00,56.5,54.8,29.93,SSE,151,0.0,3.0,94,0.00,,OVC005,0.00,VWS V14.01,2013-05-10 08:09:00,
2013-05-10 04:14:00,56.3,54.6,29.93,SSE,151,0.0,3.0,94,0.00,,OVC005,0.00,VWS V14.01,2013-05-10 08:14:00,
2013-05-10 04:19:00,56.3,54.6,29.92,SSE,151,0.0,1.5,94,0.00,,OVC005,0.00,VWS V14.01,2013-05-10 08:19:00,
2013-05-10 04:24:00,56.3,54.6,29.92,SSE,151,0.0,0.0,94,0.00,,OVC005,0.00,VWS V14.01,2013-05-10 08:24:00,
2013-05-10 04:29:00,56.3,54.6,29.92,SSE,151,0.0,0.0,94,0.00,,OVC005,0.00,VWS V14.01,2013-05-10 08:29:00,
2013-05-10 04:34:00,56.3,54.6,29.93,SSE,151,0.0,0.0,94,0.00,,OVC005,0.00,VWS V14.01,2013-05-10 08:34:00,
2013-05-10 04:39:00,56.3,54.6,29.93,SSE,151,0.0,0.0,94,0.00,,OVC005,0.00,VWS V14.01,2013-05-10 08:39:00,
2013-05-10 04:44:00,56.3,54.6,29.93,SSE,152,0.0,0.0,94,0.00,,OVC005,0.00,VWS V14.01,2013-05-10 08:44:00,
2013-05-10 04:49:00,56.3,54.3,29.93,South,180,0.0,0.0,93,0.00,,OVC005,0.00,VWS V14.01,2013-05-10 08:49:00,
2013-05-10 04:54:00,56.2,54.5,29.93,SSE,151,0.0,0.0,94,0.00,,OVC005,0.00,VWS V14.01,2013-05-10 08:54:00,
2013-05-10 04:59:00,56.2,54.2,29.93,SSE,151,0.0,0.0,93,0.00,,OVC005,0.00,VWS V14.01,2013-05-10 08:59:00,
2013-05-10 05:04:00,56.2,54.2,29.93,SSE,151,0.0,0.0,93,0.00,,OVC003,0.00,VWS V14.01,2013-05-10 09:04:00,
2013-05-10 05:09:00,56.2,54.2,29.93,SSE,151,0.0,0.0,93,0.00,,OVC003,0.00,VWS V14.01,2013-05-10 09:09:00,
2013-05-10 05:14:00,56.0,54.0,29.93,SSE,151,0.0,0.0,93,0.00,,OVC003,0.00,VWS V14.01,2013-05-10 09:14:00,
2013-05-10 05:19:00,56.0,54.0,29.93,SSE,151,0.0,0.0,93,0.00,,OVC003,0.00,VWS V14.01,2013-05-10 09:19:00,
2013-05-10 05:24:00,56.0,54.0,29.93,SSE,151,0.0,0.0,93,0.00,,OVC003,0.00,VWS V14.01,2013-05-10 09:24:00,
2013-05-10 05:29:00,55.9,53.9,29.93,SSE,151,0.0,1.5,93,0.00,,OVC003,0.00,VWS V14.01,2013-05-10 09:29:00,
2013-05-10 05:34:00,55.7,53.7,29.93,SSE,151,0.0,1.5,93,0.00,,OVC003,0.00,VWS V14.01,2013-05-10 09:34:00,
2013-05-10 05:39:00,55.7,53.7,29.93,SSE,151,0.0,1.5,93,0.00,,OVC003,0.00,VWS V14.01,2013-05-10 09:39:00,
2013-05-10 05:44:00,55.6,53.6,29.93,SSE,151,0.0,1.5,93,0.00,,OVC003,0.00,VWS V14.01,2013-05-10 09:44:00,
2013-05-10 05:49:00,55.6,53.6,29.94,SSE,151,0.0,1.5,93,0.00,,OVC003,0.00,VWS V14.01,2013-05-10 09:49:00,
2013-05-10 05:54:00,55.6,53.6,29.94,SSE,151,0.0,0.0,93,0.00,,OVC003,0.00,VWS V14.01,2013-05-10 09:54:00,
2013-05-10 05:59:00,55.6,53.6,29.94,SSE,151,0.0,0.0,93,0.00,,OVC003,0.00,VWS V14.01,2013-05-10 09:59:00,
2013-05-10 06:04:00,55.6,53.6,29.94,SSE,151,0.0,0.0,93,0.00,,OVC003,0.00,VWS V14.01,2013-05-10 10:04:00,
2013-05-10 06:09:00,55.7,53.7,29.94,SSE,151,0.0,1.5,93,0.00,,OVC003,0.00,VWS V14.01,2013-05-10 10:09:00,
2013-05-10 06:14:00,55.7,53.7,29.94,SSE,151,0.0,1.5,93,0.00,,OVC003,0.00,VWS V14.01,2013-05-10 10:14:00,
2013-05-10 06:19:00,55.7,53.7,29.94,SSE,151,0.0,3.0,93,0.00,,OVC003,0.00,VWS V14.01,2013-05-10 10:19:00,
2013-05-10 06:24:00,55.7,53.7,29.94,SW,229,1.5,6.0,93,0.00,,OVC003,0.00,VWS V14.01,2013-05-10 10:24:00,
2013-05-10 06:29:00,55.7,53.7,29.94,SW,215,0.0,6.0,93,0.00,,OVC003,0.00,VWS V14.01,2013-05-10 10:29:00,
2013-05-10 06:34:00,55.7,53.7,29.94,SW,216,1.5,6.0,93,0.00,,OVC003,0.00,VWS V14.01,2013-05-10 10:34:00,
2013-05-10 06:39:00,55.9,53.9,29.94,SW,216,0.0,6.0,93,0.00,,OVC003,0.00,VWS V14.01,2013-05-10 10:39:00,
2013-05-10 06:44:00,56.0,54.0,29.94,SW,216,1.5,6.0,93,0.00,,OVC003,0.00,VWS V14.01,2013-05-10 10:44:00,
2013-05-10 06:49:00,56.0,54.0,29.94,SW,215,0.0,6.0,93,0.00,,OVC003,0.00,VWS V14.01,2013-05-10 10:49:00,
2013-05-10 06:54:00,56.2,54.2,29.94,SW,215,0.0,4.5,93,0.00,,OVC003,0.00,VWS V14.01,2013-05-10 10:54:00,
2013-05-10 06:59:00,56.2,54.2,29.94,SW,215,0.0,4.5,93,0.00,,OVC003,0.00,VWS V14.01,2013-05-10 10:59:00,
2013-05-10 07:04:00,56.2,54.2,29.95,SSW,205,0.0,4.5,93,0.00,,OVC002,0.00,VWS V14.01,2013-05-10 11:04:00,
2013-05-10 07:09:00,56.3,54.3,29.95,SSW,205,1.5,4.5,93,0.00,,OVC002,0.00,VWS V14.01,2013-05-10 11:09:00,
2013-05-10 07:14:00,56.5,54.5,29.95,SSW,205,0.0,3.0,93,0.00,,OVC002,0.00,VWS V14.01,2013-05-10 11:14:00,
2013-05-10 07:19:00,56.5,54.5,29.96,SSW,205,0.0,3.0,93,0.00,,OVC002,0.00,VWS V14.01,2013-05-10 11:19:00,
2013-05-10 07:24:00,56.6,54.3,29.96,SSW,204,1.5,3.0,92,0.00,,OVC002,0.00,VWS V14.01,2013-05-10 11:24:00,
2013-05-10 07:29:00,56.6,54.3,29.96,SSW,204,3.0,3.0,92,0.00,,OVC002,0.00,VWS V14.01,2013-05-10 11:29:00,
2013-05-10 07:34:00,56.8,54.5,29.96,SSW,204,0.0,3.0,92,0.00,,OVC002,0.00,VWS V14.01,2013-05-10 11:34:00,
2013-05-10 07:39:00,57.0,54.7,29.96,SSW,204,0.0,3.0,92,0.00,,OVC002,0.00,VWS V14.01,2013-05-10 11:39:00,
2013-05-10 07:44:00,57.1,54.8,29.96,SSW,206,0.0,3.0,92,0.00,,OVC002,0.00,VWS V14.01,2013-05-10 11:44:00,
2013-05-10 07:49:00,57.3,54.7,29.96,SSW,206,3.0,3.0,91,0.00,,OVC002,0.00,VWS V14.01,2013-05-10 11:49:00,
2013-05-10 07:54:00,57.4,54.5,29.96,SSW,206,0.0,4.5,90,0.00,,OVC002,0.00,VWS V14.01,2013-05-10 11:54:00,
2013-05-10 07:59:00,57.9,55.0,29.96,SSW,205,0.0,4.5,90,0.00,,OVC002,0.00,VWS V14.01,2013-05-10 11:59:00,
2013-05-10 08:04:00,58.2,55.0,29.96,SSW,205,0.0,4.5,89,0.00,,OVC002,0.00,VWS V14.01,2013-05-10 12:04:00,
2013-05-10 08:09:00,58.8,55.3,29.96,SSW,206,0.0,4.5,88,0.00,,OVC002,0.00,VWS V14.01,2013-05-10 12:09:00,
2013-05-10 08:14:00,58.9,54.7,29.96,SSW,206,0.0,3.0,86,0.00,,OVC002,0.00,VWS V14.01,2013-05-10 12:14:00,
2013-05-10 08:19:00,59.2,55.0,29.97,SSW,205,0.0,0.0,86,0.00,,OVC002,0.00,VWS V14.01,2013-05-10 12:19:00,
2013-05-10 08:24:00,59.5,54.7,29.97,SSW,206,0.0,0.0,84,0.00,,OVC002,0.00,VWS V14.01,2013-05-10 12:24:00,
2013-05-10 08:29:00,60.0,55.2,29.97,SSW,205,1.5,3.0,84,0.00,,OVC002,0.00,VWS V14.01,2013-05-10 12:29:00,
2013-05-10 08:34:00,60.2,55.3,29.97,SSW,205,0.0,3.0,84,0.00,,OVC002,0.00,VWS V14.01,2013-05-10 12:34:00,
2013-05-10 08:39:00,60.6,55.1,29.97,SSW,206,0.0,3.0,82,0.00,,OVC002,0.00,VWS V14.01,2013-05-10 12:39:00,
2013-05-10 08:44:00,61.4,55.2,29.97,SSW,205,0.0,3.0,80,0.00,,OVC002,0.00,VWS V14.01,2013-05-10 12:44:00,
2013-05-10 08:49:00,62.1,55.5,29.97,SSW,206,0.0,3.0,79,0.00,,OVC002,0.00,VWS V14.01,2013-05-10 12:49:00,
2013-05-10 08:54:00,62.1,55.5,29.97,SSE,149,0.0,3.0,79,0.00,,OVC002,0.00,VWS V14.01,2013-05-10 12:54:00,
2013-05-10 08:59:00,61.4,56.2,29.97,SSE,149,1.5,4.5,83,0.00,,OVC002,0.00,VWS V14.01,2013-05-10 12:59:00,
2013-05-10 09:04:00,61.6,56.1,29.96,SSE,149,0.0,4.5,82,0.00,,OVC002,0.00,VWS V14.01,2013-05-10 13:04:00,
2013-05-10 09:09:00,61.9,56.3,29.96,SSE,149,0.0,4.5,82,0.00,,OVC002,0.00,VWS V14.01,2013-05-10 13:09:00,
2013-05-10 09:14:00,62.2,56.3,29.96,SSE,149,0.0,4.5,81,0.00,,OVC002,0.00,VWS V14.01,2013-05-10 13:14:00,
2013-05-10 09:19:00,62.2,56.0,29.97,SSE,149,4.5,4.5,80,0.00,,OVC002,0.00,VWS V14.01,2013-05-10 13:19:00,
2013-05-10 09:24:00,62.4,56.5,29.97,SSE,149,3.0,6.0,81,0.00,,OVC002,0.00,VWS V14.01,2013-05-10 13:24:00,
2013-05-10 09:29:00,62.4,56.2,29.97,SSE,153,3.0,6.0,80,0.00,,OVC002,0.00,VWS V14.01,2013-05-10 13:29:00,
2013-05-10 09:34:00,62.7,56.8,29.96,SSE,157,9.0,9.0,81,0.00,,OVC002,0.00,VWS V14.01,2013-05-10 13:34:00,
2013-05-10 09:39:00,62.7,56.8,29.96,SE,134,3.0,13.5,81,0.00,,OVC002,0.00,VWS V14.01,2013-05-10 13:39:00,
2013-05-10 09:44:00,62.7,57.1,29.96,SSE,147,6.0,13.5,82,0.00,,OVC002,0.00,VWS V14.01,2013-05-10 13:44:00,
2013-05-10 09:49:00,62.9,57.0,29.96,SE,146,7.5,13.5,81,0.00,,OVC002,0.00,VWS V14.01,2013-05-10 13:49:00,
2013-05-10 09:54:00,63.2,57.3,29.96,SE,132,7.5,13.5,81,0.00,,OVC002,0.00,VWS V14.01,2013-05-10 13:54:00,
2013-05-10 09:59:00,63.7,57.8,29.96,SSE,150,10.5,13.5,81,0.00,,OVC002,0.00,VWS V14.01,2013-05-10 13:59:00,
2013-05-10 10:04:00,63.8,57.2,29.95,South,170,13.5,15.0,79,0.00,,BKN075,0.00,VWS V14.01,2013-05-10 14:04:00,
2013-05-10 10:09:00,63.3,57.0,29.95,SSE,160,9.0,15.0,80,0.00,,BKN075,0.00,VWS V14.01,2013-05-10 14:09:00,
2013-05-10 10:14:00,63.5,57.6,29.95,SSE,167,4.5,15.0,81,0.00,,BKN075,0.00,VWS V14.01,2013-05-10 14:14:00,
2013-05-10 10:19:00,63.7,57.4,29.96,SSE,149,16.5,16.5,80,0.00,,BKN075,0.00,VWS V14.01,2013-05-10 14:19:00,
2013-05-10 10:24:00,63.7,57.4,29.96,SE,144,18.0,18.0,80,0.00,,BKN075,0.00,VWS V14.01,2013-05-10 14:24:00,
2013-05-10 10:29:00,63.5,57.9,29.96,SE,141,10.5,19.5,82,0.00,,BKN075,0.00,VWS V14.01,2013-05-10 14:29:00,
2013-05-10 10:34:00,64.0,58.1,29.96,SE,139,10.5,19.5,81,0.00,,BKN075,0.00,VWS V14.01,2013-05-10 14:34:00,
2013-05-10 10:39:00,64.5,57.8,29.96,SE,139,9.0,19.5,79,0.00,,BKN075,0.00,VWS V14.01,2013-05-10 14:39:00,
2013-05-10 10:44:00,64.8,58.1,29.96,SE,146,13.5,19.5,79,0.00,,BKN075,0.00,VWS V14.01,2013-05-10 14:44:00,
2013-05-10 10:49:00,64.8,57.8,29.96,SE,145,10.5,16.5,78,0.00,,BKN075,0.00,VWS V14.01,2013-05-10 14:49:00,
2013-05-10 10:54:00,65.1,58.4,29.96,SE,143,9.0,15.0,79,0.00,,BKN075,0.00,VWS V14.01,2013-05-10 14:54:00,
2013-05-10 10:59:00,65.6,58.2,29.96,SE,137,4.5,15.0,77,0.00,,BKN075,0.00,VWS V14.01,2013-05-10 14:59:00,
2013-05-10 11:04:00,66.1,58.7,29.96,SE,140,9.0,15.0,77,0.00,,CLR,0.00,VWS V14.01,2013-05-10 15:04:00,
2013-05-10 11:09:00,66.8,59.0,29.96,SE,146,9.0,15.0,76,0.00,,CLR,0.00,VWS V14.01,2013-05-10 15:09:00,
2013-05-10 11:14:00,67.1,58.5,29.96,SSE,156,7.5,10.5,74,0.00,,CLR,0.00,VWS V14.01,2013-05-10 15:14:00,
2013-05-10 11:19:00,66.9,58.3,29.96,SE,142,6.0,10.5,74,0.00,,CLR,0.00,VWS V14.01,2013-05-10 15:19:00,
2013-05-10 11:24:00,67.3,58.7,29.96,SE,139,12.0,13.5,74,0.00,,CLR,0.00,VWS V14.01,2013-05-10 15:24:00,
2013-05-10 11:29:00,67.9,58.9,29.96,SE,135,10.5,13.5,73,0.00,,CLR,0.00,VWS V14.01,2013-05-10 15:29:00,
2013-05-10 11:34:00,68.4,58.6,29.95,SE,136,9.0,13.5,71,0.00,,CLR,0.00,VWS V14.01,2013-05-10 15:34:00,
2013-05-10 11:39:00,68.9,59.1,29.95,SE,137,7.5,13.5,71,0.00,,CLR,0.00,VWS V14.01,2013-05-10 15:39:00,
2013-05-10 11:44:00,69.6,59.4,29.95,SE,137,6.0,13.5,70,0.00,,CLR,0.00,VWS V14.01,2013-05-10 15:44:00,
2013-05-10 11:49:00,69.9,59.3,29.95,SE,138,6.0,13.5,69,0.00,,CLR,0.00,VWS V14.01,2013-05-10 15:49:00,
2013-05-10 11:54:00,70.5,59.4,29.95,SE,145,12.0,12.0,68,0.00,,CLR,0.00,VWS V14.01,2013-05-10 15:54:00,
2013-05-10 11:59:00,70.3,59.2,29.95,SE,141,12.0,16.5,68,0.00,,CLR,0.00,VWS V14.01,2013-05-10 15:59:00,
2013-05-10 12:04:00,70.1,59.1,29.95,SE,146,9.0,16.5,68,0.00,,BKN047,0.00,VWS V14.01,2013-05-10 16:04:00,
2013-05-10 12:09:00,69.9,58.5,29.95,SE,136,6.0,16.5,67,0.00,,BKN047,0.00,VWS V14.01,2013-05-10 16:09:00,
2013-05-10 12:14:00,70.3,58.0,29.95,SE,134,6.0,16.5,65,0.00,,BKN047,0.00,VWS V14.01,2013-05-10 16:14:00,
2013-05-10 12:19:00,70.3,57.6,29.94,SE,139,6.0,16.5,64,0.00,,BKN047,0.00,VWS V14.01,2013-05-10 16:19:00,
2013-05-10 12:24:00,69.9,57.2,29.94,SE,135,6.0,13.5,64,0.00,,BKN047,0.00,VWS V14.01,2013-05-10 16:24:00,
2013-05-10 12:29:00,69.4,57.1,29.94,SE,132,7.5,10.5,65,0.00,,BKN047,0.00,VWS V14.01,2013-05-10 16:29:00,
2013-05-10 12:34:00,69.4,55.8,29.94,SE,135,9.0,10.5,62,0.00,,BKN047,0.00,VWS V14.01,2013-05-10 16:34:00,
2013-05-10 12:39:00,69.3,55.7,29.94,SE,136,10.5,13.5,62,0.00,,BKN047,0.00,VWS V14.01,2013-05-10 16:39:00,
2013-05-10 12:44:00,69.8,54.8,29.94,SE,136,7.5,13.5,59,0.00,,BKN047,0.00,VWS V14.01,2013-05-10 16:44:00,
2013-05-10 12:49:00,69.8,54.8,29.94,SE,133,13.5,13.5,59,0.00,,BKN047,0.00,VWS V14.01,2013-05-10 16:49:00,
2013-05-10 12:54:00,69.4,54.9,29.94,SE,133,6.0,13.5,60,0.00,,BKN047,0.00,VWS V14.01,2013-05-10 16:54:00,
2013-05-10 12:59:00,69.1,55.5,29.94,SE,137,7.5,13.5,62,0.00,,BKN047,0.00,VWS V14.01,2013-05-10 16:59:00,
2013-05-10 13:04:00,69.4,55.4,29.94,SE,133,4.5,13.5,61,0.00,,CLR,0.00,VWS V14.01,2013-05-10 17:04:00,
2013-05-10 13:09:00,68.9,55.8,29.94,SE,143,6.0,13.5,63,0.00,,CLR,0.00,VWS V14.01,2013-05-10 17:09:00,
2013-05-10 13:14:00,68.8,55.3,29.94,SE,142,4.5,10.5,62,0.00,,CLR,0.00,VWS V14.01,2013-05-10 17:14:00,
2013-05-10 13:19:00,68.9,56.2,29.93,SSE,149,9.0,10.5,64,0.00,,CLR,0.00,VWS V14.01,2013-05-10 17:19:00,
2013-05-10 13:24:00,68.9,56.2,29.93,SSE,156,3.0,10.5,64,0.00,,CLR,0.00,VWS V14.01,2013-05-10 17:24:00,
2013-05-10 13:29:00,68.8,56.6,29.93,SW,219,4.5,10.5,65,0.00,,CLR,0.00,VWS V14.01,2013-05-10 17:29:00,
2013-05-10 13:34:00,68.6,58.0,29.94,WSW,241,7.5,19.5,69,0.00,,CLR,0.00,VWS V14.01,2013-05-10 17:34:00,
2013-05-10 13:39:00,67.9,58.5,29.94,WSW,249,6.0,19.5,72,0.01,,CLR,0.01,VWS V14.01,2013-05-10 17:39:00,
2013-05-10 13:44:00,66.8,57.9,29.94,SW,217,9.0,19.5,73,0.01,,CLR,0.01,VWS V14.01,2013-05-10 17:44:00,
2013-05-10 13:49:00,65.9,57.4,29.94,SSW,208,15.0,19.5,74,0.02,,CLR,0.02,VWS V14.01,2013-05-10 17:49:00,
2013-05-10 13:54:00,65.4,58.4,29.94,SSW,199,10.5,19.5,78,0.02,,CLR,0.02,VWS V14.01,2013-05-10 17:54:00,
2013-05-10 13:59:00,65.1,58.1,29.94,SSW,196,12.0,16.5,78,0.02,,CLR,0.02,VWS V14.01,2013-05-10 17:59:00,
2013-05-10 14:04:00,65.0,58.3,29.94,SSW,206,9.0,16.5,79,0.02,,SCT050,0.02,VWS V14.01,2013-05-10 18:04:00,
2013-05-10 14:09:00,65.1,58.8,29.94,SSW,198,10.5,16.5,80,0.02,,SCT050,0.02,VWS V14.01,2013-05-10 18:09:00,
2013-05-10 14:14:00,65.3,59.0,29.94,South,180,10.5,16.5,80,0.02,,SCT050,0.02,VWS V14.01,2013-05-10 18:14:00,
2013-05-10 14:19:00,65.3,59.7,29.94,SSE,167,9.0,16.5,82,0.02,,SCT050,0.02,VWS V14.01,2013-05-10 18:19:00,
2013-05-10 14:24:00,65.6,59.6,29.94,SE,139,6.0,15.0,81,0.02,,SCT050,0.02,VWS V14.01,2013-05-10 18:24:00,
2013-05-10 14:29:00,65.9,59.6,29.94,SE,139,3.0,12.0,80,0.02,,SCT050,0.02,VWS V14.01,2013-05-10 18:29:00,
2013-05-10 14:34:00,66.3,58.9,29.94,SE,139,0.0,12.0,77,0.02,,SCT050,0.02,VWS V14.01,2013-05-10 18:34:00,
2013-05-10 14:39:00,66.6,59.5,29.94,SE,139,3.0,12.0,78,0.01,,SCT050,0.02,VWS V14.01,2013-05-10 18:39:00,
2013-05-10 14:44:00,67.6,59.0,29.94,SE,139,3.0,6.0,74,0.01,,SCT050,0.02,VWS V14.01,2013-05-10 18:44:00,
2013-05-10 14:49:00,68.4,60.9,29.93,SSE,151,6.0,9.0,77,0.01,,SCT050,0.02,VWS V14.01,2013-05-10 18:49:00,
2013-05-10 14:54:00,68.8,60.6,29.93,SE,138,6.0,9.0,75,0.00,,SCT050,0.02,VWS V14.01,2013-05-10 18:54:00,
2013-05-10 14:59:00,69.1,59.7,29.93,SE,139,6.0,9.0,72,0.00,,SCT050,0.02,VWS V14.01,2013-05-10 18:59:00,
2013-05-10 15:04:00,68.8,60.2,29.93,SSE,151,3.0,9.0,74,0.00,,BKN100,0.02,VWS V14.01,2013-05-10 19:04:00,
2013-05-10 15:09:00,68.3,58.9,29.93,SSE,151,3.0,9.0,72,0.00,,BKN100,0.02,VWS V14.01,2013-05-10 19:09:00,
2013-05-10 15:14:00,67.6,59.0,29.93,SSE,162,6.0,7.5,74,0.00,,BKN100,0.02,VWS V14.01,2013-05-10 19:14:00,
2013-05-10 15:19:00,67.3,58.7,29.93,SSE,160,0.0,7.5,74,0.00,,BKN100,0.02,VWS V14.01,2013-05-10 19:19:00,
2013-05-10 15:24:00,67.3,59.5,29.93,SSE,160,0.0,7.5,76,0.00,,BKN100,0.02,VWS V14.01,2013-05-10 19:24:00,
2013-05-10 15:30:00,67.4,60.0,29.93,SE,138,9.0,9.0,77,0.00,,BKN100,0.02,VWS V14.01,2013-05-10 19:30:00,
2013-05-10 15:35:00,67.4,59.2,29.93,SE,139,6.0,10.5,75,0.00,,BKN100,0.02,VWS V14.01,2013-05-10 19:35:00,
2013-05-10 15:40:00,67.8,59.2,29.93,SE,138,4.5,10.5,74,0.00,,BKN100,0.02,VWS V14.01,2013-05-10 19:40:00,
2013-05-10 15:45:00,68.3,57.3,29.92,SE,138,6.0,10.5,68,0.00,,BKN100,0.02,VWS V14.01,2013-05-10 19:45:00,
2013-05-10 15:50:00,68.8,57.0,29.92,SE,141,0.0,10.5,66,0.00,,BKN100,0.02,VWS V14.01,2013-05-10 19:50:00,
2013-05-10 15:55:00,68.8,56.1,29.92,SE,139,6.0,10.5,64,0.00,,BKN100,0.02,VWS V14.01,2013-05-10 19:55:00,
2013-05-10 16:00:00,68.6,57.6,29.92,SE,135,3.0,7.5,68,0.00,,BKN100,0.02,VWS V14.01,2013-05-10 20:00:00,
2013-05-10 16:05:00,68.3,57.3,29.92,SSE,149,7.5,7.5,68,0.00,,FEW110,0.02,VWS V14.01,2013-05-10 20:05:00,
2013-05-10 16:10:00,68.1,58.0,29.92,SSE,149,0.0,7.5,70,0.00,,FEW110,0.02,VWS V14.01,2013-05-10 20:10:00,
2013-05-10 16:15:00,67.9,57.8,29.92,SSE,149,0.0,7.5,70,0.00,,FEW110,0.02,VWS V14.01,2013-05-10 20:15:00,
2013-05-10 16:21:00,68.1,56.3,29.92,SSE,149,0.0,7.5,66,0.00,,FEW110,0.02,VWS V14.01,2013-05-10 20:21:00,
2013-05-10 16:26:00,68.1,58.0,29.92,SSE,149,0.0,7.5,70,0.00,,FEW110,0.02,VWS V14.01,2013-05-10 20:26:00,
2013-05-10 16:31:00,68.3,57.3,29.92,SSE,149,0.0,3.0,68,0.00,,FEW110,0.02,VWS V14.01,2013-05-10 20:31:00,
2013-05-10 16:36:00,68.4,57.4,29.92,SSE,164,0.0,3.0,68,0.00,,FEW110,0.02,VWS V14.01,2013-05-10 20:36:00,
2013-05-10 16:41:00,68.6,57.6,29.92,SSE,164,3.0,3.0,68,0.00,,FEW110,0.02,VWS V14.01,2013-05-10 20:41:00,
2013-05-10 16:46:00,68.4,57.8,29.92,South,171,6.0,6.0,69,0.00,,FEW110,0.02,VWS V14.01,2013-05-10 20:46:00,
2013-05-10 16:51:00,68.3,56.5,29.92,SSE,159,6.0,6.0,66,0.00,,FEW110,0.02,VWS V14.01,2013-05-10 20:51:00,
2013-05-10 16:56:00,67.9,58.2,29.92,SE,134,3.0,6.0,71,0.00,,FEW110,0.02,VWS V14.01,2013-05-10 20:56:00,
2013-05-10 16:57:00,68.3,56.9,29.92,SE,133,0.0,4.5,67,0.00,,SCT120,0.02,VWS V14.01,2013-05-10 20:57:00,
2013-05-10 16:58:00,68.3,56.9,29.92,SE,133,0.0,4.5,67,0.00,,SCT120,0.02,VWS V14.01,2013-05-10 20:58:00,
2013-05-10 16:59:00,68.3,56.5,29.92,SE,133,0.0,4.5,66,0.00,,SCT120,0.02,VWS V14.01,2013-05-10 20:59:00,
2013-05-10 17:00:00,68.3,55.7,29.92,SE,133,0.0,3.0,64,0.00,,SCT120,0.02,VWS V14.01,2013-05-10 21:00:00,
2013-05-10 17:01:00,67.4,58.1,29.92,SE,135,6.0,6.0,72,0.00,,FEW110,0.02,VWS V14.01,2013-05-10 21:01:00,
2013-05-10 17:02:00,68.3,55.7,29.92,SE,133,0.0,1.5,64,0.00,,OVC065,0.02,VWS V14.01,2013-05-10 21:02:00,
2013-05-10 17:03:00,68.1,55.0,29.92,SE,133,0.0,0.0,63,0.00,,OVC065,0.02,VWS V14.01,2013-05-10 21:03:00,
2013-05-10 17:04:00,68.1,55.9,29.92,SE,132,0.0,0.0,65,0.00,,OVC065,0.02,VWS V14.01,2013-05-10 21:04:00,
2013-05-10 17:05:00,68.1,55.9,29.92,SE,133,0.0,0.0,65,0.00,,OVC065,0.02,VWS V14.01,2013-05-10 21:05:00,
2013-05-10 17:06:00,67.3,56.4,29.92,SE,133,4.5,7.5,68,0.00,,SCT120,0.02,VWS V14.01,2013-05-10 21:06:00,
2013-05-10 17:07:00,68.3,56.5,29.92,SE,133,0.0,0.0,66,0.00,,OVC065,0.02,VWS V14.01,2013-05-10 21:07:00,
2013-05-10 17:11:00,67.4,56.1,29.92,SE,134,3.0,7.5,67,0.00,,SCT120,0.02,VWS V14.01,2013-05-10 21:11:00,
2013-05-10 17:16:00,67.6,56.7,29.92,SE,134,3.0,7.5,68,0.00,,SCT120,0.02,VWS V14.01,2013-05-10 21:16:00,
2013-05-10 17:21:00,67.6,55.8,29.92,SE,134,0.0,7.5,66,0.00,,SCT120,0.02,VWS V14.01,2013-05-10 21:21:00,
2013-05-10 17:26:00,67.8,56.0,29.92,SE,134,3.0,7.5,66,0.00,,SCT120,0.02,VWS V14.01,2013-05-10 21:26:00,
2013-05-10 17:31:00,67.8,55.6,29.92,SE,133,4.5,7.5,65,0.00,,SCT120,0.02,VWS V14.01,2013-05-10 21:31:00,
2013-05-10 17:36:00,67.8,55.6,29.92,SE,133,3.0,7.5,65,0.00,,SCT120,0.02,VWS V14.01,2013-05-10 21:36:00,
2013-05-10 17:41:00,67.8,55.2,29.92,SE,133,0.0,7.5,64,0.00,,SCT120,0.02,VWS V14.01,2013-05-10 21:41:00,
2013-05-10 17:46:00,67.9,54.4,29.92,SE,133,0.0,7.5,62,0.00,,SCT120,0.02,VWS V14.01,2013-05-10 21:46:00,
2013-05-10 17:51:00,68.1,55.5,29.92,SE,133,0.0,7.5,64,0.00,,SCT120,0.02,VWS V14.01,2013-05-10 21:51:00,
2013-05-10 17:56:00,68.3,56.9,29.92,SE,133,0.0,4.5,67,0.00,,SCT120,0.02,VWS V14.01,2013-05-10 21:56:00,
2013-05-10 18:04:00,68.1,55.5,29.92,SE,133,0.0,0.0,64,0.00,,OVC065,0.02,VWS V14.01,2013-05-10 22:04:00,
2013-05-10 18:09:00,68.3,57.3,29.92,SE,133,0.0,0.0,68,0.00,,OVC065,0.02,VWS V14.01,2013-05-10 22:09:00,
2013-05-10 18:14:00,68.3,57.3,29.92,SSE,158,3.0,4.5,68,0.00,,OVC065,0.02,VWS V14.01,2013-05-10 22:14:00,
2013-05-10 18:19:00,68.1,57.6,29.91,SSE,158,0.0,4.5,69,0.00,,OVC065,0.02,VWS V14.01,2013-05-10 22:19:00,
2013-05-10 18:24:00,67.8,56.9,29.91,SSE,158,6.0,7.5,68,0.00,,OVC065,0.02,VWS V14.01,2013-05-10 22:24:00,
2013-05-10 18:29:00,67.6,56.3,29.91,SSE,156,12.0,15.0,67,0.00,,OVC065,0.02,VWS V14.01,2013-05-10 22:29:00,
2013-05-10 18:34:00,67.8,56.0,29.91,SE,141,6.0,15.0,66,0.00,,OVC065,0.02,VWS V14.01,2013-05-10 22:34:00,
2013-05-10 18:39:00,67.8,56.5,29.91,SE,131,4.5,15.0,67,0.00,,OVC065,0.02,VWS V14.01,2013-05-10 22:39:00,
2013-05-10 18:44:00,67.8,56.9,29.92,SE,128,1.5,15.0,68,0.00,,OVC065,0.02,VWS V14.01,2013-05-10 22:44:00,
2013-05-10 18:49:00,68.1,56.3,29.92,SE,129,6.0,15.0,66,0.00,,OVC065,0.02,VWS V14.01,2013-05-10 22:49:00,
2013-05-10 18:54:00,68.1,57.6,29.92,SE,132,4.5,7.5,69,0.00,,OVC065,0.02,VWS V14.01,2013-05-10 22:54:00,
2013-05-10 18:59:00,67.8,57.3,29.92,SE,129,3.0,7.5,69,0.00,,OVC065,0.02,VWS V14.01,2013-05-10 22:59:00,
2013-05-10 19:04:00,67.3,56.8,29.92,SE,124,6.0,7.5,69,0.00,,OVC090,0.02,VWS V14.01,2013-05-10 23:04:00,
2013-05-10 19:09:00,67.3,56.4,29.92,ESE,116,3.0,16.5,68,0.00,,OVC090,0.02,VWS V14.01,2013-05-10 23:09:00,
2013-05-10 19:14:00,67.3,56.4,29.93,SE,132,7.5,16.5,68,0.00,,OVC090,0.02,VWS V14.01,2013-05-10 23:14:00,
2013-05-10 19:19:00,67.1,55.8,29.93,SE,124,7.5,16.5,67,0.00,,OVC090,0.02,VWS V14.01,2013-05-10 23:19:00,
2013-05-10 19:24:00,66.8,55.5,29.93,ESE,108,7.5,16.5,67,0.00,,OVC090,0.02,VWS V14.01,2013-05-10 23:24:00,
2013-05-10 19:29:00,66.6,55.7,29.93,East,101,9.0,16.5,68,0.00,,OVC090,0.02,VWS V14.01,2013-05-10 23:29:00,
2013-05-10 19:34:00,66.3,55.4,29.93,ESE,117,13.5,16.5,68,0.00,,OVC090,0.02,VWS V14.01,2013-05-10 23:34:00,
2013-05-10 19:39:00,66.1,54.4,29.93,SE,129,9.0,16.5,66,0.00,,OVC090,0.02,VWS V14.01,2013-05-10 23:39:00,
2013-05-10 19:44:00,65.9,53.8,29.94,SE,134,15.0,21.0,65,0.00,,OVC090,0.02,VWS V14.01,2013-05-10 23:44:00,
2013-05-10 19:49:00,65.9,54.2,29.94,SE,131,16.5,21.0,66,0.00,,OVC090,0.02,VWS V14.01,2013-05-10 23:49:00,
2013-05-10 19:54:00,65.8,54.1,29.94,SE,129,18.0,21.0,66,0.00,,OVC090,0.02,VWS V14.01,2013-05-10 23:54:00,
2013-05-10 19:59:00,65.8,53.7,29.94,ESE,122,10.5,21.0,65,0.00,,OVC090,0.02,VWS V14.01,2013-05-10 23:59:00,
2013-05-10 20:04:00,65.6,52.7,29.94,ESE,114,10.5,21.0,63,0.00,,BKN110,0.02,VWS V14.01,2013-05-11 00:04:00,
2013-05-10 20:10:00,65.6,52.7,29.94,ESE,114,10.5,19.5,63,0.00,,BKN110,0.02,VWS V14.01,2013-05-11 00:10:00,
2013-05-10 20:15:00,65.4,52.5,29.93,SE,132,10.5,19.5,63,0.00,,BKN110,0.02,VWS V14.01,2013-05-11 00:15:00,
2013-05-10 20:20:00,65.4,52.9,29.93,SE,133,10.5,19.5,64,0.00,,BKN110,0.02,VWS V14.01,2013-05-11 00:20:00,
2013-05-10 20:25:00,65.3,52.8,29.93,SE,129,9.0,19.5,64,0.00,,BKN110,0.02,VWS V14.01,2013-05-11 00:25:00,
2013-05-10 20:30:00,65.1,53.1,29.94,East,90,6.0,18.0,65,0.00,,BKN110,0.02,VWS V14.01,2013-05-11 00:30:00,
2013-05-10 20:35:00,65.0,53.4,29.94,East,94,10.5,18.0,66,0.00,,BKN110,0.02,VWS V14.01,2013-05-11 00:35:00,
2013-05-10 20:40:00,64.8,53.6,29.94,ESE,109,9.0,18.0,67,0.00,,BKN110,0.02,VWS V14.01,2013-05-11 00:40:00,
2013-05-10 20:45:00,64.6,53.0,29.94,SE,130,6.0,18.0,66,0.00,,BKN110,0.02,VWS V14.01,2013-05-11 00:45:00,
2013-05-10 20:50:00,64.5,52.9,29.94,ESE,123,10.5,15.0,66,0.00,,BKN110,0.02,VWS V14.01,2013-05-11 00:50:00,
2013-05-10 20:55:00,64.5,53.3,29.94,SE,124,7.5,18.0,67,0.00,,BKN110,0.02,VWS V14.01,2013-05-11 00:55:00,
2013-05-10 21:00:00,64.3,52.7,29.94,East,83,6.0,18.0,66,0.00,,BKN110,0.02,VWS V14.01,2013-05-11 01:00:00,
2013-05-10 21:05:00,64.2,53.0,29.94,SE,124,7.5,18.0,67,0.00,,SCT120,0.02,VWS V14.01,2013-05-11 01:05:00,
2013-05-10 21:10:00,64.2,53.0,29.94,SE,139,6.0,18.0,67,0.00,,SCT120,0.02,VWS V14.01,2013-05-11 01:10:00,
2013-05-10 21:15:00,64.0,53.2,29.93,SE,128,13.5,18.0,68,0.00,,SCT120,0.02,VWS V14.01,2013-05-11 01:15:00,
2013-05-10 21:20:00,63.7,53.0,29.93,ESE,114,9.0,16.5,68,0.00,,SCT120,0.02,VWS V14.01,2013-05-11 01:20:00,
2013-05-10 21:25:00,63.5,52.8,29.93,ESE,110,3.0,16.5,68,0.00,,SCT120,0.02,VWS V14.01,2013-05-11 01:25:00,
2013-05-10 21:30:00,63.5,53.9,29.93,ESE,106,4.5,15.0,71,0.00,,SCT120,0.02,VWS V14.01,2013-05-11 01:30:00,
2013-05-10 21:35:00,63.3,53.0,29.93,East,100,4.5,15.0,69,0.00,,SCT120,0.02,VWS V14.01,2013-05-11 01:35:00,
2013-05-10 21:40:00,63.3,54.5,29.93,SE,125,3.0,13.5,73,0.00,,SCT120,0.02,VWS V14.01,2013-05-11 01:40:00,
2013-05-10 21:45:00,63.0,53.8,29.94,ESE,121,4.5,9.0,72,0.00,,SCT120,0.02,VWS V14.01,2013-05-11 01:45:00,
2013-05-10 21:50:00,63.0,53.5,29.94,ESE,116,1.5,7.5,71,0.00,,SCT120,0.02,VWS V14.01,2013-05-11 01:50:00,
2013-05-10 21:55:00,62.9,53.4,29.94,SE,126,1.5,7.5,71,0.00,,SCT120,0.02,VWS V14.01,2013-05-11 01:55:00,
2013-05-10 22:00:00,62.7,53.5,29.93,SE,136,1.5,7.5,72,0.00,,SCT120,0.02,VWS V14.01,2013-05-11 02:00:00,
2013-05-10 22:05:00,62.7,53.9,29.93,ESE,116,0.0,6.0,73,0.00,,FEW120,0.02,VWS V14.01,2013-05-11 02:05:00,
2013-05-10 22:10:00,62.4,54.0,29.93,ESE,108,0.0,6.0,74,0.00,,FEW120,0.02,VWS V14.01,2013-05-11 02:10:00,
2013-05-10 22:15:00,61.9,53.9,29.94,ESE,109,0.0,6.0,75,0.00,,FEW120,0.02,VWS V14.01,2013-05-11 02:15:00,
2013-05-10 22:20:00,61.6,54.0,29.94,ESE,108,0.0,4.5,76,0.00,,FEW120,0.02,VWS V14.01,2013-05-11 02:20:00,
2013-05-10 22:25:00,61.1,53.8,29.94,ESE,110,0.0,1.5,77,0.00,,FEW120,0.02,VWS V14.01,2013-05-11 02:25:00,
2013-05-10 22:30:00,60.8,53.5,29.93,ESE,105,0.0,3.0,77,0.00,,FEW120,0.02,VWS V14.01,2013-05-11 02:30:00,
2013-05-10 22:35:00,60.6,53.4,29.93,ENE,76,0.0,4.5,77,0.00,,FEW120,0.02,VWS V14.01,2013-05-11 02:35:00,
2013-05-10 22:40:00,60.6,53.4,29.93,ENE,74,0.0,4.5,77,0.00,,FEW120,0.02,VWS V14.01,2013-05-11 02:40:00,
2013-05-10 22:45:00,60.6,53.4,29.93,ENE,60,4.5,4.5,77,0.00,,FEW120,0.02,VWS V14.01,2013-05-11 02:45:00,
2013-05-10 22:50:00,60.6,53.7,29.93,ENE,63,4.5,6.0,78,0.00,,FEW120,0.02,VWS V14.01,2013-05-11 02:50:00,
2013-05-10 22:55:00,60.5,53.3,29.93,ENE,73,0.0,6.0,77,0.00,,FEW120,0.02,VWS V14.01,2013-05-11 02:55:00,
2013-05-10 23:00:00,60.5,53.6,29.92,ENE,73,0.0,6.0,78,0.00,,FEW120,0.02,VWS V14.01,2013-05-11 03:00:00,
2013-05-10 23:01:00,58.5,53.7,29.92,ENE,73,0.0,0.0,84,0.00,,SCT120,0.02,VWS V14.01,2013-05-11 03:01:00,
2013-05-10 23:02:00,58.5,53.7,29.92,ENE,74,0.0,0.0,84,0.00,,CLR,0.02,VWS V14.01,2013-05-11 03:02:00,
2013-05-10 23:03:00,58.5,53.7,29.92,ENE,73,0.0,0.0,84,0.00,,CLR,0.02,VWS V14.01,2013-05-11 03:03:00,
2013-05-10 23:04:00,58.5,53.7,29.92,ENE,73,0.0,0.0,84,0.00,,CLR,0.02,VWS V14.01,2013-05-11 03:04:00,
2013-05-10 23:05:00,60.3,53.8,29.92,ENE,73,0.0,6.0,79,0.00,,SCT120,0.02,VWS V14.01,2013-05-11 03:05:00,
2013-05-10 23:06:00,58.3,53.5,29.92,ENE,73,0.0,0.0,84,0.00,,CLR,0.02,VWS V14.01,2013-05-11 03:06:00,
2013-05-10 23:07:00,58.3,53.5,29.92,ENE,73,0.0,0.0,84,0.00,,CLR,0.02,VWS V14.01,2013-05-11 03:07:00,
2013-05-10 23:08:00,58.3,53.5,29.92,ENE,73,0.0,0.0,84,0.00,,CLR,0.02,VWS V14.01,2013-05-11 03:08:00,
2013-05-10 23:09:00,58.3,53.5,29.92,ENE,73,0.0,0.0,84,0.00,,CLR,0.02,VWS V14.01,2013-05-11 03:09:00,
2013-05-10 23:10:00,60.2,54.0,29.92,ENE,74,0.0,6.0,80,0.00,,SCT120,0.02,VWS V14.01,2013-05-11 03:10:00,
2013-05-10 23:11:00,58.3,53.5,29.92,ENE,73,0.0,0.0,84,0.00,,CLR,0.02,VWS V14.01,2013-05-11 03:11:00,
2013-05-10 23:15:00,59.7,53.5,29.92,ENE,74,0.0,3.0,80,0.00,,SCT120,0.02,VWS V14.01,2013-05-11 03:15:00,
2013-05-10 23:20:00,59.5,53.3,29.92,ENE,74,0.0,0.0,80,0.00,,SCT120,0.02,VWS V14.01,2013-05-11 03:20:00,
2013-05-10 23:25:00,59.2,53.4,29.92,ENE,74,0.0,0.0,81,0.00,,SCT120,0.02,VWS V14.01,2013-05-11 03:25:00,
2013-05-10 23:30:00,59.1,53.6,29.91,ENE,74,0.0,0.0,82,0.00,,SCT120,0.02,VWS V14.01,2013-05-11 03:30:00,
2013-05-10 23:35:00,59.1,53.6,29.91,ENE,74,0.0,0.0,82,0.00,,SCT120,0.02,VWS V14.01,2013-05-11 03:35:00,
2013-05-10 23:40:00,59.1,53.6,29.91,ENE,73,0.0,0.0,82,0.00,,SCT120,0.02,VWS V14.01,2013-05-11 03:40:00,
2013-05-10 23:45:00,58.9,53.8,29.91,ENE,74,0.0,0.0,83,0.00,,SCT120,0.02,VWS V14.01,2013-05-11 03:45:00,
2013-05-10 23:50:00,58.8,53.7,29.91,ENE,74,0.0,0.0,83,0.00,,SCT120,0.02,VWS V14.01,2013-05-11 03:50:00,
2013-05-10 23:55:00,58.6,53.5,29.91,ENE,73,0.0,0.0,83,0.00,,SCT120,0.02,VWS V14.01,2013-05-11 03:55:00,